Greenville, Alabama
Current Conditions -  °F | °C
As of 2:56 PM on Friday 19 Dec 2014 (Local Time) from KPRN Reporting Station
Overcast Overcast  
Wind Chill: 53°   Ceiling: 10000
Heat Index: 53°   Visibility: 10mi
Dew Point: 36°   Wind: 6mph
Humidity: 52%   Direction: 20°NNE
Pressure: 30.09"   Gusts: NA
Location:  31.83°N, 86.63°W
Report Text: KPRN 192056Z AUTO 02005KT 10SM OVC100 12/02 A3009 RMK AO2 SLP187 T01170022 55025
Loading
Personal Weather Stations






























Interactive Weather Map New forecast layout! Learn more

10-Day Weather Forecast

Advertisements
Track Severe Weather on mobile